Stapleton, Nebraska
Current Conditions -  °F | °C
As of 9:53 AM on Saturday 20 Dec 2014 (Local Time) from KLBF Reporting Station
Haze Haze  
Wind Chill: 16°   Ceiling: Unl
Heat Index: 25°   Visibility: 5mi
Dew Point: 21°   Wind: 8mph
Humidity: 85%   Direction: 270°W
Pressure: 30.02"   Gusts: NA
Location:  41.48°N, 100.51°W
Report Text: KLBF 201553Z AUTO 27007KT 5SM BR CLR M04/M06 A3002 RMK AO2 SLP197 T10391061
Loading
Personal Weather Stations






























Interactive Weather Map New forecast layout! Learn more

10-Day Weather Forecast

Advertisements
Track Severe Weather on mobile